Time;durP1;ratioP1;P1;durP2;ratioP2;P2;SDS_P1;SDS_P2;PMS_P1;PMS_P2;Temp;Humidity;BMP_temperature;BMP_pressure;BME280_temperature;BME280_humidity;BME280_pressure;Samples;Min_cycle;Max_cycle;Signal;HPM_P1;HPM_P2
2022/04/03 00:00:05;;;;;;;3.90;3.08;;;;;;;-3.64;87.02;102210.09;1039841;28;20303;-76
2022/04/03 00:00:38;;;;;;;3.70;3.22;;;;;;;-3.71;87.42;102212.22;1036514;28;20383;-76
2022/04/03 00:01:10;;;;;;;3.50;2.90;;;;;;;-3.74;87.19;102207.19;1041092;28;20681;-76
2022/04/03 00:01:41;;;;;;;3.28;2.80;;;;;;;-3.77;87.67;102208.22;1040808;28;20304;-76
2022/04/03 00:02:13;;;;;;;3.67;2.97;;;;;;;-3.82;87.00;102206.81;1042081;28;20801;-76
2022/04/03 00:02:45;;;;;;;7.75;2.63;;;;;;;-3.87;87.08;102211.44;1043890;28;20354;-76
2022/04/03 00:03:17;;;;;;;5.47;2.88;;;;;;;-3.86;87.73;102213.09;1037908;28;20318;-75
2022/04/03 00:03:48;;;;;;;6.03;3.58;;;;;;;-3.91;87.69;102208.19;1047155;28;20300;-76
2022/04/03 00:04:20;;;;;;;6.90;3.42;;;;;;;-3.84;87.38;102213.84;1046010;28;20377;-76
2022/04/03 00:04:52;;;;;;;4.97;3.03;;;;;;;-3.80;87.84;102207.56;1045637;28;20704;-76
2022/04/03 00:05:23;;;;;;;7.95;3.92;;;;;;;-3.76;87.33;102206.47;1043701;28;20313;-75
2022/04/03 00:06:13;;;;;;;8.02;3.25;;;;;;;-3.87;87.63;102216.63;1041604;28;20295;-76
2022/04/03 00:06:45;;;;;;;5.05;3.70;;;;;;;-3.94;87.06;102212.72;1040277;28;20304;-75
2022/04/03 00:07:16;;;;;;;3.80;3.25;;;;;;;-3.87;87.26;102214.03;1043126;28;20295;-76
2022/04/03 00:07:48;;;;;;;4.20;3.75;;;;;;;-3.83;87.21;102207.75;1043951;28;20668;-76
2022/04/03 00:08:19;;;;;;;8.43;3.30;;;;;;;-3.82;87.68;102209.44;1038572;28;20296;-75
2022/04/03 00:08:51;;;;;;;3.85;3.15;;;;;;;-3.91;87.55;102205.56;1042977;28;20820;-76
2022/04/03 00:09:23;;;;;;;6.53;3.67;;;;;;;-3.95;87.00;102208.44;1036316;28;20323;-75
2022/04/03 00:09:55;;;;;;;4.30;3.35;;;;;;;-3.84;87.51;102200.84;1029061;28;20298;-76
2022/04/03 00:10:27;;;;;;;4.57;3.47;;;;;;;-3.74;87.40;102197.63;1035521;28;20801;-76
2022/04/03 00:10:59;;;;;;;7.28;3.50;;;;;;;-3.81;87.03;102206.72;1032405;28;20316;-76
2022/04/03 00:11:31;;;;;;;5.05;3.63;;;;;;;-3.90;87.85;102206.41;1036512;28;20308;-75
2022/04/03 00:12:03;;;;;;;7.05;4.13;;;;;;;-3.96;87.31;102206.78;1033064;28;20771;-76
2022/04/03 00:12:35;;;;;;;4.10;3.70;;;;;;;-3.98;87.45;102204.25;1039954;28;20557;-75
2022/04/03 00:13:06;;;;;;;8.23;2.95;;;;;;;-3.87;87.38;102201.88;1048684;28;20343;-76
2022/04/03 00:13:38;;;;;;;4.40;2.92;;;;;;;-3.80;87.66;102205.81;1043184;28;20303;-75
2022/04/03 00:14:11;;;;;;;4.88;3.63;;;;;;;-3.85;87.55;102204.38;1048011;28;20364;-76
2022/04/03 00:14:42;;;;;;;3.58;3.28;;;;;;;-3.89;87.21;102213.28;1043587;28;20303;-76
2022/04/03 00:15:14;;;;;;;8.40;3.33;;;;;;;-3.85;87.38;102206.97;1044660;28;20344;-76
2022/04/03 00:15:46;;;;;;;6.43;3.22;;;;;;;-3.78;87.06;102203.09;1046556;28;20359;-76
2022/04/03 00:16:18;;;;;;;6.30;3.17;;;;;;;-3.83;86.96;102207.75;1046803;28;20439;-76
2022/04/03 00:16:50;;;;;;;3.17;2.80;;;;;;;-3.88;87.23;102209.75;1044059;28;20291;-75
2022/04/03 00:17:22;;;;;;;6.72;3.35;;;;;;;-3.88;87.49;102209.75;1042268;28;20303;-76
2022/04/03 00:17:54;;;;;;;5.35;3.15;;;;;;;-3.99;87.17;102207.78;1039526;28;20299;-76
2022/04/03 00:18:25;;;;;;;6.28;3.47;;;;;;;-4.06;87.38;102203.88;1042820;28;20300;-75
2022/04/03 00:18:57;;;;;;;3.83;3.13;;;;;;;-4.03;87.39;102208.06;1046331;28;20298;-76
2022/04/03 00:19:28;;;;;;;6.90;3.25;;;;;;;-3.98;87.16;102208.63;1042502;28;20305;-76
2022/04/03 00:20:00;;;;;;;3.97;3.28;;;;;;;-3.91;87.58;102215.16;1038229;28;20280;-75
2022/04/03 00:20:32;;;;;;;5.55;3.25;;;;;;;-3.87;87.28;102212.28;1043442;28;20307;-76
2022/04/03 00:21:03;;;;;;;3.72;2.92;;;;;;;-3.84;87.81;102211.25;1043573;28;20295;-76
2022/04/03 00:21:36;;;;;;;4.25;3.53;;;;;;;-3.87;87.62;102212.28;1044425;28;20295;-76
2022/04/03 00:22:08;;;;;;;7.75;2.88;;;;;;;-3.86;87.89;102207.91;1045750;28;20295;-77
2022/04/03 00:22:39;;;;;;;3.92;2.80;;;;;;;-3.77;88.05;102210.81;1048045;28;20328;-77
2022/04/03 00:23:11;;;;;;;4.65;2.95;;;;;;;-3.86;87.79;102211.34;1048223;28;20294;-76
2022/04/03 00:23:43;;;;;;;9.07;3.38;;;;;;;-3.80;87.59;102207.56;1039151;28;20296;-76
2022/04/03 00:24:14;;;;;;;4.35;3.25;;;;;;;-3.79;87.84;102209.25;1036496;28;20379;-76
2022/04/03 00:24:46;;;;;;;3.85;3.28;;;;;;;-3.79;87.77;102214.44;1039328;28;20439;-76
2022/04/03 00:25:18;;;;;;;5.35;3.60;;;;;;;-3.73;87.77;102208.88;1038319;28;20297;-77
2022/04/03 00:25:51;;;;;;;5.28;3.00;;;;;;;-3.71;87.98;102209.63;1048101;28;20305;-76
2022/04/03 00:26:22;;;;;;;2.95;2.63;;;;;;;-3.68;87.85;102209.44;1049220;28;20298;-76
2022/04/03 00:26:54;;;;;;;5.38;3.63;;;;;;;-3.64;87.34;102208.31;1048253;28;20302;-77
2022/04/03 00:27:26;;;;;;;4.30;3.30;;;;;;;-3.64;88.17;102203.13;1039740;28;20303;-77
2022/04/03 00:27:58;;;;;;;5.15;3.15;;;;;;;-3.58;87.71;102202.75;1035283;28;20379;-77
2022/04/03 00:28:30;;;;;;;7.63;3.00;;;;;;;-3.55;87.52;102212.19;1035501;28;20300;-77
2022/04/03 00:29:02;;;;;;;5.95;3.50;;;;;;;-3.58;87.02;102205.34;1036832;28;20376;-76
2022/04/03 00:29:33;;;;;;;10.13;3.47;;;;;;;-3.55;87.62;102205.19;1037084;28;20355;-77
2022/04/03 00:30:06;;;;;;;4.40;3.35;;;;;;;-3.52;87.48;102210.22;1040715;28;20318;-77
2022/04/03 00:30:38;;;;;;;5.63;3.45;;;;;;;-3.55;86.67;102210.41;1039740;28;20296;-77
2022/04/03 00:31:11;;;;;;;4.90;3.35;;;;;;;-3.56;87.05;102206.13;1045007;28;20314;-77
2022/04/03 00:31:42;;;;;;;8.45;3.42;;;;;;;-3.57;86.82;102208.78;1047245;28;20648;-77
2022/04/03 00:32:14;;;;;;;5.57;4.03;;;;;;;-3.47;86.69;102204.72;1047875;28;20295;-73
2022/04/03 00:32:46;;;;;;;4.60;3.90;;;;;;;-3.45;86.61;102208.91;1047939;28;20798;-74
2022/04/03 00:33:18;;;;;;;5.78;3.88;;;;;;;-3.47;86.98;102202.97;1048343;28;20367;-77
2022/04/03 00:33:50;;;;;;;5.47;3.60;;;;;;;-3.49;87.15;102211.81;1052301;28;20301;-77
2022/04/03 00:34:22;;;;;;;5.35;3.22;;;;;;;-3.56;86.69;102203.53;1047872;28;20299;-77
2022/04/03 00:34:53;;;;;;;7.65;4.00;;;;;;;-3.64;86.49;102204.88;1047791;28;20299;-76
2022/04/03 00:35:26;;;;;;;9.35;3.95;;;;;;;-3.73;86.42;102198.47;1047506;28;20302;-76
2022/04/03 00:35:57;;;;;;;14.00;3.83;;;;;;;-3.77;86.94;102196.97;1044497;28;20298;-77
2022/04/03 00:36:29;;;;;;;8.88;3.53;;;;;;;-3.75;86.84;102210.75;1048238;28;20382;-77
2022/04/03 00:37:01;;;;;;;4.78;3.97;;;;;;;-3.76;86.75;102203.84;1048090;28;20298;-76
2022/04/03 00:37:33;;;;;;;7.80;3.60;;;;;;;-3.79;86.86;102202.28;1048230;28;20781;-76
2022/04/03 00:38:06;;;;;;;4.43;3.72;;;;;;;-3.83;86.76;102206.00;1043915;28;20291;-77
2022/04/03 00:38:38;;;;;;;6.38;3.75;;;;;;;-3.86;87.01;102205.31;1039201;28;20358;-76
2022/04/03 00:39:09;;;;;;;4.07;3.35;;;;;;;-3.89;86.86;102208.94;1039652;28;20311;-76
2022/04/03 00:39:41;;;;;;;8.40;3.70;;;;;;;-3.89;87.15;102203.72;1038324;28;20307;-76
2022/04/03 00:40:13;;;;;;;7.40;3.47;;;;;;;-3.89;87.55;102213.28;1044194;28;20310;-76
2022/04/03 00:40:46;;;;;;;5.68;3.53;;;;;;;-3.91;87.21;102204.72;1043474;28;20315;-76
2022/04/03 00:41:20;;;;;;;5.38;4.22;;;;;;;-3.88;87.56;102204.56;1043893;28;20299;-76
2022/04/03 00:41:52;;;;;;;5.32;3.63;;;;;;;-3.81;87.79;102203.28;1035559;28;20376;-76
2022/04/03 00:42:25;;;;;;;5.07;3.38;;;;;;;-3.89;87.95;102202.88;1037169;28;20292;-76
2022/04/03 00:42:57;;;;;;;3.20;2.97;;;;;;;-3.93;87.58;102204.00;1039115;28;20319;-76
2022/04/03 00:43:29;;;;;;;8.73;3.70;;;;;;;-3.98;87.42;102206.03;1032169;28;20312;-76
2022/04/03 00:44:00;;;;;;;5.57;4.35;;;;;;;-3.95;87.21;102203.25;1032050;28;20297;-75
2022/04/03 00:44:33;;;;;;;7.13;3.80;;;;;;;-4.01;87.48;102204.44;1036371;28;20301;-76
2022/04/03 00:45:05;;;;;;;5.10;3.50;;;;;;;-3.87;87.07;102206.22;1042063;28;20747;-77
2022/04/03 00:45:39;;;;;;;6.63;3.65;;;;;;;-3.86;87.41;102203.53;1040320;28;20300;-76
2022/04/03 00:46:12;;;;;;;4.13;3.45;;;;;;;-4.02;87.20;102201.94;1039278;28;20888;-76
2022/04/03 00:46:45;;;;;;;6.07;3.58;;;;;;;-4.06;87.92;102196.91;1038351;28;20445;-76
2022/04/03 00:47:17;;;;;;;3.83;3.08;;;;;;;-3.96;87.55;102201.56;1029387;28;20329;-76
2022/04/03 00:47:54;;;;;;;5.80;3.38;;;;;;;-3.94;88.06;102199.72;1032351;28;20300;-76
2022/04/03 00:48:26;;;;;;;3.83;3.38;;;;;;;-3.86;88.03;102202.69;1035303;28;20297;-76
2022/04/03 00:48:59;;;;;;;6.13;3.67;;;;;;;-3.95;87.98;102208.44;1031267;28;20309;-76
2022/04/03 00:49:32;;;;;;;3.83;3.10;;;;;;;-4.13;88.92;102205.97;1032787;28;20293;-76
2022/04/03 00:50:04;;;;;;;3.47;3.10;;;;;;;-4.03;88.96;102203.69;1030583;28;20288;-76
2022/04/03 00:50:35;;;;;;;3.75;2.70;;;;;;;-4.00;88.29;102215.69;1032030;28;20301;-76
2022/04/03 00:51:07;;;;;;;3.78;3.42;;;;;;;-4.14;88.78;102206.06;1032198;28;20767;-76
2022/04/03 00:51:39;;;;;;;4.15;3.72;;;;;;;-4.20;89.18;102209.00;1032831;28;20297;-76
2022/04/03 00:52:11;;;;;;;4.38;3.40;;;;;;;-4.20;89.45;102209.00;1040959;28;20300;-76
2022/04/03 00:52:42;;;;;;;5.10;3.70;;;;;;;-4.20;89.10;102214.22;1042322;28;20291;-76
2022/04/03 00:53:14;;;;;;;3.88;3.22;;;;;;;-4.14;89.37;102209.50;1038107;28;20623;-76
2022/04/03 00:53:46;;;;;;;5.07;3.58;;;;;;;-4.01;89.50;102219.22;1035060;28;20359;-76
2022/04/03 00:54:18;;;;;;;4.47;3.42;;;;;;;-3.93;88.96;102214.41;1039457;28;20288;-76
2022/04/03 00:54:50;;;;;;;5.13;3.55;;;;;;;-3.96;89.38;102212.81;1042093;28;20296;-76
2022/04/03 00:55:21;;;;;;;3.70;3.40;;;;;;;-4.00;89.22;102215.69;1043898;28;20295;-77
2022/04/03 00:55:53;;;;;;;4.88;3.35;;;;;;;-4.05;89.04;102209.00;1048362;28;20299;-76
2022/04/03 00:56:24;;;;;;;4.80;3.13;;;;;;;-4.14;88.67;102208.66;1043472;28;20354;-76
2022/04/03 00:56:56;;;;;;;3.50;3.20;;;;;;;-4.22;88.63;102206.50;1042053;28;20291;-77
2022/04/03 00:57:28;;;;;;;4.03;3.20;;;;;;;-4.20;88.32;102209.84;1043116;28;20724;-76
2022/04/03 00:58:01;;;;;;;7.07;4.10;;;;;;;-4.26;88.79;102205.00;1040734;28;20300;-76
2022/04/03 00:58:33;;;;;;;5.30;3.50;;;;;;;-4.16;88.96;102206.16;1041561;28;20291;-76
2022/04/03 00:59:09;;;;;;;8.80;4.07;;;;;;;-4.07;88.99;102207.41;1038545;28;20344;-76
2022/04/03 00:59:41;;;;;;;6.15;3.83;;;;;;;-4.02;88.94;102202.78;1040846;28;20823;-75
2022/04/03 01:00:14;;;;;;;4.60;4.13;;;;;;;-3.98;88.43;102203.44;1036794;28;20304;-76
2022/04/03 01:00:45;;;;;;;5.80;3.80;;;;;;;-3.95;88.69;102206.69;1039799;28;20307;-76
2022/04/03 01:01:19;;;;;;;6.93;4.30;;;;;;;-4.10;89.06;102205.81;1041269;28;20342;-76
2022/04/03 01:01:51;;;;;;;6.35;4.07;;;;;;;-4.15;88.65;102207.81;1041170;28;20304;-75
2022/04/03 01:02:23;;;;;;;5.18;3.65;;;;;;;-4.24;89.25;102203.16;1047382;28;20393;-76
2022/04/03 01:02:54;;;;;;;7.13;3.92;;;;;;;-4.18;89.45;102204.56;1039558;28;20304;-76
2022/04/03 01:03:26;;;;;;;4.75;4.30;;;;;;;-4.08;89.66;102198.75;1041315;28;20296;-77
2022/04/03 01:03:59;;;;;;;6.55;4.00;;;;;;;-4.06;89.59;102207.31;1047728;28;20294;-76
2022/04/03 01:04:31;;;;;;;4.07;3.28;;;;;;;-4.03;89.14;102201.09;1048336;28;20362;-76
2022/04/03 01:05:02;;;;;;;5.25;4.75;;;;;;;-4.03;89.62;102205.47;1050653;28;20297;-76
2022/04/03 01:05:35;;;;;;;6.25;3.80;;;;;;;-4.03;89.33;102206.28;1048068;28;20298;-76
2022/04/03 01:06:07;;;;;;;5.75;4.25;;;;;;;-3.98;89.83;102209.47;1039635;28;20350;-77
2022/04/03 01:06:39;;;;;;;5.85;4.28;;;;;;;-4.01;89.17;102206.22;1041895;28;20295;-76
2022/04/03 01:07:11;;;;;;;8.20;4.93;;;;;;;-4.01;89.45;102201.84;1039595;28;20300;-76
2022/04/03 01:07:45;;;;;;;10.25;4.57;;;;;;;-4.00;89.39;102205.28;1041021;28;20824;-76
2022/04/03 01:08:18;;;;;;;7.07;4.85;;;;;;;-4.01;89.00;102203.59;1047860;28;20310;-76
2022/04/03 01:08:50;;;;;;;5.57;3.80;;;;;;;-4.07;88.98;102200.44;1043088;28;20296;-77
2022/04/03 01:09:22;;;;;;;6.63;4.75;;;;;;;-4.01;89.43;102198.41;1039899;28;20831;-76
2022/04/03 01:09:53;;;;;;;8.02;4.05;;;;;;;-3.98;89.27;102201.66;1040297;28;20377;-76
2022/04/03 01:10:25;;;;;;;6.65;4.70;;;;;;;-4.22;88.84;102201.28;1045754;28;20302;-77
2022/04/03 01:10:57;;;;;;;7.03;4.25;;;;;;;-4.22;89.27;102196.09;1040434;28;20300;-76
2022/04/03 01:11:29;;;;;;;5.97;4.07;;;;;;;-4.14;89.07;102199.09;1042112;28;20307;-75
2022/04/03 01:12:01;;;;;;;5.78;3.47;;;;;;;-4.10;88.95;102190.22;1031497;28;20309;-76
2022/04/03 01:12:32;;;;;;;8.20;3.50;;;;;;;-4.17;88.96;102195.81;1031776;28;20309;-76
2022/04/03 01:13:21;;;;;;;4.93;3.83;;;;;;;-4.29;89.71;102192.16;1041016;28;20310;-75
2022/04/03 01:13:53;;;;;;;5.18;3.95;;;;;;;-4.25;90.02;102195.44;1046645;28;20334;-76
2022/04/03 01:14:34;;;;;;;4.55;3.90;;;;;;;-4.29;89.97;102199.97;1045235;28;20807;-76
2022/04/03 01:15:07;;;;;;;7.18;4.03;;;;;;;-4.42;89.48;102201.56;1043529;28;20708;-76
2022/04/03 01:15:39;;;;;;;5.90;3.35;;;;;;;-4.48;89.80;102204.53;1040778;28;20300;-76
2022/04/03 01:16:11;;;;;;;6.75;3.95;;;;;;;-4.41;90.12;102196.28;1041532;28;20304;-76
2022/04/03 01:16:43;;;;;;;4.03;3.45;;;;;;;-4.27;90.28;102200.72;1047894;28;20290;-76
2022/04/03 01:17:14;;;;;;;4.25;3.53;;;;;;;-4.21;90.67;102207.34;1044439;28;20296;-76
2022/04/03 01:17:46;;;;;;;5.03;3.60;;;;;;;-4.20;90.59;102207.25;1048647;28;20309;-76
2022/04/03 01:18:18;;;;;;;4.45;3.72;;;;;;;-4.16;90.51;102210.50;1045726;28;20337;-76
2022/04/03 01:18:50;;;;;;;6.13;3.90;;;;;;;-4.35;90.43;102200.31;1037148;28;20348;-76
2022/04/03 01:19:22;;;;;;;7.63;4.55;;;;;;;-4.37;90.54;102196.97;1035390;28;20313;-76
2022/04/03 01:19:53;;;;;;;5.85;3.75;;;;;;;-4.22;90.71;102203.06;1036155;28;20353;-76
2022/04/03 01:20:25;;;;;;;3.30;3.03;;;;;;;-4.20;90.45;102203.81;1040349;28;20300;-76
2022/04/03 01:20:56;;;;;;;4.30;3.72;;;;;;;-4.16;90.64;102200.94;1044633;28;20401;-76
2022/04/03 01:21:28;;;;;;;7.53;3.80;;;;;;;-4.19;90.26;102201.13;1047823;28;20695;-76
2022/04/03 01:22:00;;;;;;;7.22;4.25;;;;;;;-4.15;90.80;102204.38;1048076;28;20322;-76
2022/04/03 01:22:32;;;;;;;5.63;4.38;;;;;;;-4.19;90.28;102205.47;1046992;28;20294;-76
2022/04/03 01:23:03;;;;;;;6.90;4.30;;;;;;;-4.31;90.30;102211.41;1043623;28;20303;-76
2022/04/03 01:23:35;;;;;;;7.90;3.67;;;;;;;-4.30;90.35;102203.50;1045467;28;20299;-77
2022/04/03 01:24:16;;;;;;;4.78;3.60;;;;;;;-4.36;90.13;102203.84;1042263;28;20299;-76
2022/04/03 01:24:55;;;;;;;5.55;3.15;;;;;;;-4.39;90.45;102204.84;1039471;28;20281;-76
2022/04/03 01:25:27;;;;;;;4.95;3.50;;;;;;;-4.46;90.61;102205.28;1043848;28;20298;-77
2022/04/03 01:25:58;;;;;;;3.63;3.33;;;;;;;-4.48;90.40;102209.72;1049289;28;20301;-76
2022/04/03 01:26:30;;;;;;;5.47;4.10;;;;;;;-4.47;90.51;102211.41;1046685;28;20302;-76
2022/04/03 01:27:02;;;;;;;5.93;3.47;;;;;;;-4.43;90.91;102207.69;1047941;28;20294;-76
2022/04/03 01:27:34;;;;;;;4.85;3.83;;;;;;;-4.37;90.87;102199.56;1043413;28;20878;-76
2022/04/03 01:28:07;;;;;;;5.03;3.50;;;;;;;-4.47;90.77;102212.25;1043309;28;20299;-77
2022/04/03 01:28:39;;;;;;;6.35;3.90;;;;;;;-4.50;90.82;102206.38;1044396;28;20287;-76
2022/04/03 01:29:11;;;;;;;9.45;3.72;;;;;;;-4.54;90.95;102204.88;1046808;28;20663;-76
2022/04/03 01:29:42;;;;;;;6.82;3.90;;;;;;;-4.51;90.42;102205.53;1050687;28;20297;-76
2022/04/03 01:30:14;;;;;;;4.97;3.83;;;;;;;-4.58;90.78;102205.97;1046301;28;20321;-77
2022/04/03 01:30:45;;;;;;;8.38;4.28;;;;;;;-4.55;91.04;102198.84;1043791;28;20295;-76
2022/04/03 01:31:18;;;;;;;4.90;4.43;;;;;;;-4.50;90.39;102206.38;1043354;28;20673;-76
2022/04/03 01:31:51;;;;;;;5.28;3.45;;;;;;;-4.50;90.55;102201.16;1044420;28;20803;-75
2022/04/03 01:32:22;;;;;;;5.15;4.68;;;;;;;-4.44;91.17;102203.44;1044589;28;20287;-76
2022/04/03 01:32:54;;;;;;;7.80;3.85;;;;;;;-4.32;90.86;102210.56;1039698;28;20350;-76
2022/04/03 01:33:26;;;;;;;13.25;4.15;;;;;;;-4.45;90.57;102206.94;1040197;28;20303;-77
2022/04/03 01:33:58;;;;;;;4.55;3.80;;;;;;;-4.45;91.16;102204.34;1044329;28;20299;-76
2022/04/03 01:34:30;;;;;;;4.13;3.58;;;;;;;-4.40;90.83;102199.72;1044221;28;20343;-76
2022/04/03 01:35:03;;;;;;;7.15;3.80;;;;;;;-4.38;90.91;102214.34;1038538;28;20299;-77
2022/04/03 01:35:35;;;;;;;5.75;3.42;;;;;;;-4.34;90.83;102203.78;1034185;28;20408;-77
2022/04/03 01:36:06;;;;;;;3.38;3.08;;;;;;;-4.45;90.87;102200.00;1034467;28;20297;-77
2022/04/03 01:36:38;;;;;;;4.40;4.00;;;;;;;-4.48;91.19;102207.13;1036808;28;20308;-76
2022/04/03 01:37:10;;;;;;;3.88;3.47;;;;;;;-4.53;90.91;102202.19;1044190;28;20318;-76
2022/04/03 01:37:41;;;;;;;9.75;3.88;;;;;;;-4.56;91.02;102201.53;1047847;28;20283;-77
2022/04/03 01:38:13;;;;;;;8.55;3.88;;;;;;;-4.56;90.14;102198.91;1047917;28;20294;-77
2022/04/03 01:38:45;;;;;;;4.43;3.30;;;;;;;-4.52;90.80;102193.47;1046597;28;20291;-76
2022/04/03 01:39:17;;;;;;;6.07;3.42;;;;;;;-4.52;90.61;102197.81;1045587;28;20729;-77
2022/04/03 01:40:08;;;;;;;4.38;4.03;;;;;;;-4.52;91.08;102195.22;1041427;28;20785;-77
2022/04/03 01:40:40;;;;;;;3.67;3.25;;;;;;;-4.56;90.82;102201.53;1043587;28;20302;-76
2022/04/03 01:41:13;;;;;;;9.27;4.15;;;;;;;-4.63;91.56;102200.19;1039576;28;20112;-76
2022/04/03 01:41:44;;;;;;;5.03;3.33;;;;;;;-4.57;90.95;102197.25;1042839;28;20319;-76
2022/04/03 01:42:16;;;;;;;5.47;3.45;;;;;;;-4.50;91.27;102202.00;1046204;28;20316;-75
2022/04/03 01:42:50;;;;;;;6.97;3.95;;;;;;;-4.60;90.87;102200.03;1044227;28;20307;-77
2022/04/03 01:43:21;;;;;;;5.07;3.95;;;;;;;-4.64;91.50;102199.34;1048101;28;20305;-77
2022/04/03 01:43:53;;;;;;;6.90;4.03;;;;;;;-4.68;91.27;102198.66;1045716;28;20295;-77
2022/04/03 01:44:24;;;;;;;7.75;5.25;;;;;;;-4.71;91.58;102204.03;1047941;28;20306;-77
2022/04/03 01:44:56;;;;;;;7.55;3.80;;;;;;;-4.73;91.69;102192.88;1047898;28;20375;-76
2022/04/03 01:45:28;;;;;;;5.72;3.72;;;;;;;-4.62;91.44;102201.88;1050566;28;20294;-77
2022/04/03 01:46:00;;;;;;;7.80;4.13;;;;;;;-4.60;91.27;102202.63;1043620;28;20773;-77
2022/04/03 01:46:32;;;;;;;4.18;3.45;;;;;;;-4.57;91.40;102198.09;1042286;28;20676;-76
2022/04/03 01:47:04;;;;;;;5.45;4.50;;;;;;;-4.60;91.14;102194.81;1037626;28;20334;-76
2022/04/03 01:47:36;;;;;;;5.10;3.53;;;;;;;-4.68;91.26;102195.22;1036046;28;20315;-77
2022/04/03 01:48:08;;;;;;;6.25;3.90;;;;;;;-4.76;90.81;102192.22;1038592;28;20300;-77
2022/04/03 01:48:40;;;;;;;5.65;3.85;;;;;;;-4.80;90.90;102201.94;1036356;28;20277;-76
2022/04/03 01:49:11;;;;;;;6.25;3.97;;;;;;;-4.83;91.31;102190.88;1041164;28;20302;-77
2022/04/03 01:49:43;;;;;;;4.93;4.20;;;;;;;-4.77;91.71;102199.16;1043476;28;20299;-77
2022/04/03 01:50:15;;;;;;;3.97;3.53;;;;;;;-4.76;91.53;102193.03;1044180;28;20720;-77
2022/04/03 01:50:48;;;;;;;6.28;3.83;;;;;;;-4.74;91.46;102193.81;1052240;28;20290;-76
2022/04/03 01:51:20;;;;;;;4.28;3.30;;;;;;;-4.75;91.33;102194.72;1052134;28;20778;-77
2022/04/03 01:51:52;;;;;;;6.45;4.05;;;;;;;-4.71;91.49;102193.63;1051703;28;20305;-76
2022/04/03 01:52:23;;;;;;;3.97;3.50;;;;;;;-4.63;91.18;102198.44;1050166;28;20278;-76
2022/04/03 01:52:55;;;;;;;5.90;3.90;;;;;;;-4.71;91.56;102198.81;1048014;28;20328;-76
2022/04/03 01:53:27;;;;;;;6.00;3.67;;;;;;;-4.57;91.45;102202.44;1048732;28;20306;-77
2022/04/03 01:53:59;;;;;;;4.43;3.80;;;;;;;-4.60;91.67;102200.03;1045448;28;20328;-77
2022/04/03 01:54:31;;;;;;;8.82;3.90;;;;;;;-4.62;91.28;102192.31;1039630;28;20303;-76
2022/04/03 01:55:03;;;;;;;4.82;4.05;;;;;;;-4.58;91.46;102203.38;1042010;28;20812;-77
2022/04/03 01:55:35;;;;;;;3.72;3.25;;;;;;;-4.59;91.17;102199.94;1040424;28;20327;-76
2022/04/03 01:56:07;;;;;;;4.38;3.47;;;;;;;-4.61;91.83;102193.16;1044661;28;20307;-77
2022/04/03 01:56:40;;;;;;;5.40;4.03;;;;;;;-4.67;91.26;102192.53;1042799;28;20331;-76
2022/04/03 01:57:12;;;;;;;4.07;3.63;;;;;;;-4.69;91.04;102199.56;1036895;28;20743;-76
2022/04/03 01:57:43;;;;;;;5.05;4.18;;;;;;;-4.72;91.16;102197.16;1042727;28;20280;-77
2022/04/03 01:58:15;;;;;;;8.73;4.50;;;;;;;-4.70;91.29;102197.91;1040869;28;20311;-77
2022/04/03 01:58:47;;;;;;;8.13;3.58;;;;;;;-4.69;90.92;102191.78;1037452;28;20375;-77
2022/04/03 01:59:19;;;;;;;5.35;3.28;;;;;;;-4.69;91.40;102186.59;1040526;28;20812;-77
2022/04/03 01:59:50;;;;;;;7.32;3.47;;;;;;;-4.65;91.21;102194.25;1036693;28;20300;-76
2022/04/03 02:00:23;;;;;;;4.95;4.20;;;;;;;-4.65;90.83;102184.69;1041282;28;20315;-75
2022/04/03 02:00:55;;;;;;;4.43;3.17;;;;;;;-4.68;91.14;102195.22;1048722;28;20306;-75
2022/04/03 02:01:28;;;;;;;3.70;3.30;;;;;;;-4.70;90.96;102195.31;1042851;28;20308;-75
2022/04/03 02:02:00;;;;;;;5.70;3.72;;;;;;;-4.74;90.78;102192.97;1044708;28;20703;-74
2022/04/03 02:02:33;;;;;;;4.15;3.40;;;;;;;-4.81;90.87;102192.47;1044388;28;20299;-75
2022/04/03 02:03:05;;;;;;;8.27;3.90;;;;;;;-4.72;90.18;102189.34;1040934;28;20698;-73
2022/04/03 02:03:37;;;;;;;7.53;3.97;;;;;;;-4.76;90.88;102190.44;1035407;28;20300;-74
2022/04/03 02:04:08;;;;;;;3.65;3.10;;;;;;;-4.76;91.14;102190.44;1040287;28;20292;-77
2022/04/03 02:04:40;;;;;;;5.45;3.88;;;;;;;-4.77;90.59;102188.78;1040840;28;20382;-74
2022/04/03 02:05:11;;;;;;;7.32;3.97;;;;;;;-4.95;90.81;102184.56;1045125;28;20287;-76
2022/04/03 02:05:43;;;;;;;5.20;4.18;;;;;;;-5.04;91.13;102185.06;1039144;28;20303;-75
2022/04/03 02:06:15;;;;;;;4.28;3.65;;;;;;;-5.01;90.82;102193.53;1039172;28;20296;-75
2022/04/03 02:06:48;;;;;;;3.47;2.88;;;;;;;-4.97;90.85;102196.81;1040553;28;20295;-75
2022/04/03 02:07:20;;;;;;;5.13;3.40;;;;;;;-4.94;91.17;102191.44;1042811;28;20307;-75
2022/04/03 02:07:51;;;;;;;6.80;3.70;;;;;;;-4.85;91.33;102196.16;1050132;28;20314;-75
2022/04/03 02:08:24;;;;;;;5.38;3.38;;;;;;;-4.82;91.38;102190.78;1052842;28;20667;-76
2022/04/03 02:08:56;;;;;;;7.50;3.92;;;;;;;-4.78;92.21;102192.28;1046868;28;20735;-76
2022/04/03 02:09:28;;;;;;;4.00;3.42;;;;;;;-4.83;91.67;102183.91;1044311;28;20299;-77
2022/04/03 02:10:00;;;;;;;5.82;3.75;;;;;;;-4.84;91.79;102187.44;1047155;28;20287;-77
2022/04/03 02:10:32;;;;;;;3.72;3.30;;;;;;;-4.79;91.89;102185.44;1038882;28;20304;-76
2022/04/03 02:11:04;;;;;;;6.90;3.70;;;;;;;-4.78;92.19;102188.84;1048019;28;20309;-74
2022/04/03 02:11:36;;;;;;;4.53;3.78;;;;;;;-4.89;91.74;102183.41;1041551;28;20308;-75
2022/04/03 02:12:08;;;;;;;4.10;3.65;;;;;;;-4.93;92.23;102189.69;1038906;28;20311;-73
2022/04/03 02:12:40;;;;;;;4.30;3.90;;;;;;;-4.85;92.83;102192.72;1044111;28;20808;-73
2022/04/03 02:13:12;;;;;;;7.53;4.10;;;;;;;-4.82;92.03;102190.78;1043713;28;20303;-74
2022/04/03 02:13:43;;;;;;;6.10;3.55;;;;;;;-4.85;92.32;102188.38;1036879;28;20304;-74
2022/04/03 02:14:16;;;;;;;6.18;3.50;;;;;;;-4.89;91.90;102193.81;1042008;28;20835;-77
2022/04/03 02:14:47;;;;;;;8.13;3.47;;;;;;;-4.92;92.38;102194.00;1044973;28;20699;-76
2022/04/03 02:15:19;;;;;;;5.10;4.00;;;;;;;-4.95;92.79;102192.38;1047723;28;20346;-75
2022/04/03 02:15:50;;;;;;;4.70;3.78;;;;;;;-4.97;91.94;102192.44;1043355;28;20307;-77
2022/04/03 02:16:23;;;;;;;3.20;2.90;;;;;;;-4.99;92.28;102190.84;1047769;28;20799;-77
2022/04/03 02:16:56;;;;;;;3.40;2.67;;;;;;;-5.12;92.99;102200.25;1044397;28;20357;-77
2022/04/03 02:17:28;;;;;;;3.92;3.22;;;;;;;-5.12;92.22;102187.25;1044579;28;20310;-77
2022/04/03 02:18:00;;;;;;;4.18;3.33;;;;;;;-5.12;92.63;102192.44;1038347;28;20317;-73
2022/04/03 02:18:31;;;;;;;4.72;3.92;;;;;;;-5.19;92.40;102196.28;1039907;28;20631;-76
2022/04/03 02:19:03;;;;;;;5.13;4.05;;;;;;;-5.21;93.00;102188.56;1036811;28;20300;-73
2022/04/03 02:19:35;;;;;;;5.22;3.40;;;;;;;-5.29;93.06;102190.72;1036721;28;20673;-74
2022/04/03 02:20:09;;;;;;;7.78;3.88;;;;;;;-5.31;92.94;102198.59;1043379;28;20377;-74
2022/04/03 02:20:41;;;;;;;5.03;3.88;;;;;;;-5.33;93.40;102195.25;1042760;28;20629;-76
2022/04/03 02:21:12;;;;;;;7.53;4.00;;;;;;;-5.32;93.73;102196.09;1041261;28;20304;-75
2022/04/03 02:21:44;;;;;;;4.28;3.88;;;;;;;-5.33;94.15;102199.59;1045410;28;20299;-75
2022/04/03 02:22:15;;;;;;;5.43;3.55;;;;;;;-5.21;93.87;102198.09;1049057;28;20313;-77
2022/04/03 02:22:47;;;;;;;4.78;3.50;;;;;;;-5.32;93.42;102196.94;1040443;28;20300;-73
2022/04/03 02:23:18;;;;;;;5.38;3.47;;;;;;;-5.28;93.55;102197.59;1037298;28;20300;-74
2022/04/03 02:23:51;;;;;;;3.42;3.13;;;;;;;-5.14;93.74;102194.28;1040026;28;20686;-73
2022/04/03 02:24:23;;;;;;;3.95;3.55;;;;;;;-5.22;93.37;102199.03;1041294;28;20341;-73
2022/04/03 02:24:55;;;;;;;6.85;3.70;;;;;;;-5.24;94.16;102198.28;1049027;28;20313;-76
2022/04/03 02:25:26;;;;;;;4.10;3.72;;;;;;;-5.28;94.06;102201.03;1043548;28;20397;-75
2022/04/03 02:25:58;;;;;;;5.65;3.90;;;;;;;-5.26;93.95;102200.13;1040128;28;20664;-76
2022/04/03 02:26:29;;;;;;;5.47;3.97;;;;;;;-5.27;93.60;102204.47;1040157;28;20308;-75
2022/04/03 02:27:01;;;;;;;5.20;3.65;;;;;;;-5.25;93.46;102197.44;1044387;28;20300;-76
2022/04/03 02:27:33;;;;;;;4.40;3.80;;;;;;;-5.18;93.87;102200.56;1045903;28;20299;-77
2022/04/03 02:28:06;;;;;;;6.00;3.90;;;;;;;-5.14;93.71;102199.50;1044539;28;20303;-75
2022/04/03 02:28:39;;;;;;;5.45;3.55;;;;;;;-5.16;93.31;102196.97;1045244;28;20306;-76
2022/04/03 02:29:10;;;;;;;5.60;3.45;;;;;;;-5.18;93.55;102203.16;1049136;28;20298;-75
2022/04/03 02:29:42;;;;;;;5.38;3.55;;;;;;;-5.12;93.62;102205.44;1052955;28;20309;-75